createdAt,value
2019-04-23T00:00:04.959Z,17.10
2019-04-23T00:02:23.324Z,17.00
2019-04-23T00:04:53.085Z,17.00
2019-04-23T00:07:35.685Z,17.00
2019-04-23T00:10:03.498Z,16.90
2019-04-23T00:12:38.484Z,16.80
2019-04-23T00:15:05.153Z,16.80
2019-04-23T00:20:06.472Z,16.70
2019-04-23T00:23:02.434Z,16.60
2019-04-23T00:25:51.080Z,16.60
2019-04-23T00:30:48.292Z,16.50
2019-04-23T00:33:21.744Z,16.50
2019-04-23T00:35:48.616Z,16.40
2019-04-23T00:38:18.234Z,16.40
2019-04-23T00:40:47.379Z,16.40
2019-04-23T00:43:24.294Z,16.30
2019-04-23T00:50:52.453Z,16.20
2019-04-23T00:53:17.716Z,16.20
2019-04-23T00:55:52.773Z,16.20
2019-04-23T01:00:56.141Z,16.30
2019-04-23T01:06:07.765Z,16.20
2019-04-23T01:08:24.937Z,16.10
2019-04-23T01:13:31.528Z,16.00
2019-04-23T01:16:08.528Z,15.90
2019-04-23T01:18:48.826Z,15.90
2019-04-23T01:20:54.618Z,15.80
2019-04-23T01:23:40.635Z,15.70
2019-04-23T01:26:23.937Z,15.70
2019-04-23T01:29:05.326Z,15.70
2019-04-23T01:31:33.128Z,15.60
2019-04-23T01:34:11.464Z,15.60
2019-04-23T01:36:33.019Z,15.50
2019-04-23T01:39:06.341Z,15.50
2019-04-23T01:41:33.341Z,15.40
2019-04-23T01:44:07.458Z,15.40
2019-04-23T01:46:45.810Z,15.40
2019-04-23T01:49:09.538Z,15.40
2019-04-23T01:51:40.035Z,15.30
2019-04-23T01:54:10.852Z,15.20
2019-04-23T01:56:33.457Z,15.10
2019-04-23T01:59:12.649Z,15.00
2019-04-23T02:01:44.638Z,15.00
2019-04-23T02:04:19.752Z,15.00
2019-04-23T02:07:01.167Z,14.90
2019-04-23T02:09:13.788Z,14.80
2019-04-23T02:11:47.445Z,14.90
2019-04-23T02:14:14.883Z,14.80
2019-04-23T02:16:47.806Z,14.80
2019-04-23T02:19:16.993Z,14.80
2019-04-23T02:21:57.745Z,14.80
2019-04-23T02:24:29.916Z,14.80
2019-04-23T02:26:48.600Z,14.70
2019-04-23T02:29:36.367Z,14.70
2019-04-23T02:32:03.314Z,14.60
2019-04-23T02:34:43.268Z,14.60
2019-04-23T02:37:02.129Z,14.60
2019-04-23T02:39:45.994Z,14.50
2019-04-23T02:42:18.727Z,14.40
2019-04-23T02:44:46.991Z,14.40
2019-04-23T02:49:43.748Z,14.30
2019-04-23T02:52:11.261Z,14.20
2019-04-23T02:57:08.791Z,14.20
2019-04-23T03:04:49.984Z,14.00
2019-04-23T03:07:39.041Z,14.00
2019-04-23T03:09:49.890Z,14.00
2019-04-23T03:12:27.073Z,14.00
2019-04-23T03:14:59.200Z,13.90
2019-04-23T03:17:36.944Z,13.90
2019-04-23T03:25:36.207Z,13.70
2019-04-23T03:28:16.326Z,13.70
2019-04-23T03:31:57.622Z,13.70
2019-04-23T03:34:02.634Z,13.60
2019-04-23T03:38:30.169Z,13.50
2019-04-23T03:41:02.314Z,13.50
2019-04-23T03:43:29.635Z,13.40
2019-04-23T03:48:34.083Z,13.30
2019-04-23T03:50:46.441Z,13.20
2019-04-23T03:53:34.670Z,13.20
2019-04-23T03:56:12.484Z,13.20
2019-04-23T03:58:27.798Z,13.20
2019-04-23T04:01:04.157Z,13.20
2019-04-23T04:03:55.210Z,13.10
2019-04-23T04:06:05.522Z,13.10
2019-04-23T04:13:30.901Z,13.00
2019-04-23T04:18:38.649Z,13.00
2019-04-23T04:23:33.825Z,13.00
2019-04-23T04:28:44.544Z,12.90
2019-04-23T04:31:05.733Z,12.90
2019-04-23T04:33:49.086Z,12.90
2019-04-23T04:38:42.393Z,12.80
2019-04-23T04:41:09.560Z,12.70
2019-04-23T04:43:41.368Z,12.70
2019-04-23T04:46:25.399Z,12.60
2019-04-23T04:48:44.358Z,12.60
2019-04-23T04:51:19.407Z,12.50
2019-04-23T05:03:29.700Z,12.40
2019-04-23T05:08:48.023Z,12.40
2019-04-23T05:11:17.444Z,12.40
2019-04-23T05:13:44.624Z,12.40
2019-04-23T05:16:12.486Z,12.50
2019-04-23T05:19:15.503Z,12.40
2019-04-23T05:21:38.782Z,12.50
2019-04-23T05:24:02.896Z,12.50
2019-04-23T05:26:27.189Z,12.50
2019-04-23T05:31:30.965Z,12.60
2019-04-23T05:34:04.535Z,12.60
2019-04-23T05:36:34.345Z,12.60
2019-04-23T05:39:12.080Z,12.60
2019-04-23T05:44:13.799Z,12.70
2019-04-23T05:46:37.702Z,12.80
2019-04-23T05:49:09.331Z,12.80
2019-04-23T05:51:42.035Z,12.90
2019-04-23T05:54:08.429Z,13.00
2019-04-23T06:04:24.818Z,13.20
2019-04-23T06:09:15.875Z,13.40
2019-04-23T06:16:41.464Z,13.60
2019-04-23T06:19:15.797Z,13.70
2019-04-23T06:21:54.964Z,13.70
2019-04-23T06:24:16.337Z,13.80
2019-04-23T06:26:45.810Z,13.90
2019-04-23T06:29:22.496Z,14.00
2019-04-23T06:36:46.598Z,14.20
2019-04-23T06:39:23.295Z,14.30
2019-04-23T06:41:49.952Z,14.50
2019-04-23T06:46:56.869Z,14.70
2019-04-23T06:49:23.674Z,14.80
2019-04-23T06:52:00.472Z,14.90
2019-04-23T06:54:25.777Z,15.00
2019-04-23T06:59:27.359Z,15.30
2019-04-23T07:02:21.011Z,15.40
2019-04-23T07:07:24.094Z,15.50
2019-04-23T07:09:35.471Z,15.60
2019-04-23T07:11:59.061Z,15.70
2019-04-23T07:14:36.975Z,15.80
2019-04-23T07:16:58.492Z,15.90
2019-04-23T07:22:09.999Z,16.20
2019-04-23T07:24:28.839Z,16.40
2019-04-23T07:27:01.351Z,16.50
2019-04-23T07:29:30.868Z,16.70
2019-04-23T07:32:08.871Z,16.90
2019-04-23T07:34:44.217Z,17.10
2019-04-23T07:37:05.181Z,17.20
2019-04-23T07:39:57.051Z,17.30
2019-04-23T07:42:34.425Z,17.40
2019-04-23T07:45:20.549Z,17.50
2019-04-23T07:48:15.233Z,17.70
2019-04-23T07:50:48.000Z,17.70
2019-04-23T07:53:13.293Z,17.90
2019-04-23T07:58:15.539Z,18.10
2019-04-23T08:00:45.143Z,18.30
2019-04-23T08:03:17.389Z,18.40
2019-04-23T08:05:49.692Z,18.60
2019-04-23T08:08:07.519Z,18.80
2019-04-23T08:10:46.713Z,18.90
2019-04-23T08:13:17.307Z,19.10
2019-04-23T08:15:42.947Z,19.20
2019-04-23T08:18:13.495Z,19.30
2019-04-23T08:20:55.629Z,19.30
2019-04-23T08:23:40.459Z,19.40
2019-04-23T08:26:26.835Z,19.60
2019-04-23T08:29:01.113Z,19.80
2019-04-23T08:31:30.425Z,19.80
2019-04-23T08:33:56.966Z,19.90
2019-04-23T08:36:23.722Z,19.90
2019-04-23T08:38:50.574Z,19.90
2019-04-23T08:41:26.896Z,19.80
2019-04-23T08:44:15.586Z,19.90
2019-04-23T08:47:08.707Z,19.70
2019-04-23T08:49:36.166Z,19.70
2019-04-23T08:52:10.530Z,19.70
2019-04-23T08:54:46.764Z,19.60
2019-04-23T08:57:04.026Z,19.70
2019-04-23T09:02:17.559Z,19.90
2019-04-23T09:04:31.141Z,19.90
2019-04-23T09:07:04.927Z,20.00
2019-04-23T09:09:34.960Z,20.20
2019-04-23T09:14:42.438Z,20.40
2019-04-23T09:17:13.268Z,20.50
2019-04-23T09:19:42.857Z,20.50
2019-04-23T09:22:14.453Z,20.70
2019-04-23T09:24:43.264Z,20.90
2019-04-23T09:27:16.318Z,21.00
2019-04-23T09:29:49.121Z,21.10
2019-04-23T09:32:30.251Z,21.30
2019-04-23T09:35:14.337Z,21.60
2019-04-23T09:41:15.720Z,21.90
2019-04-23T09:43:47.356Z,22.10
2019-04-23T09:46:45.170Z,22.20
2019-04-23T09:49:14.872Z,22.30
2019-04-23T09:54:23.656Z,22.40
2019-04-23T09:56:44.604Z,22.60
2019-04-23T09:59:17.672Z,22.70
2019-04-23T10:01:40.902Z,22.90
2019-04-23T10:03:57.666Z,23.00
2019-04-23T10:06:22.640Z,23.10
2019-04-23T10:08:53.572Z,22.90
2019-04-23T10:11:20.001Z,23.00
2019-04-23T10:13:50.340Z,23.20
2019-04-23T10:16:21.512Z,23.50
2019-04-23T10:18:50.999Z,23.70
2019-04-23T10:21:21.347Z,23.80
2019-04-23T10:23:51.676Z,24.00
2019-04-23T10:26:21.843Z,24.10
2019-04-23T10:29:02.114Z,24.40
2019-04-23T10:31:31.587Z,24.50
2019-04-23T10:34:01.960Z,24.60
2019-04-23T10:36:32.502Z,24.80
2019-04-23T10:39:08.616Z,24.90
2019-04-23T10:41:33.244Z,24.80
2019-04-23T10:44:09.120Z,24.90
2019-04-23T10:47:12.359Z,24.90
2019-04-23T10:49:53.405Z,24.80
2019-04-23T10:52:19.091Z,24.60
2019-04-23T10:54:45.650Z,24.50
2019-04-23T10:57:16.173Z,24.60
2019-04-23T11:02:34.701Z,25.00
2019-04-23T11:05:08.834Z,25.10
2019-04-23T11:12:52.234Z,25.40
2019-04-23T11:15:32.431Z,25.70
2019-04-23T11:17:47.753Z,25.90
2019-04-23T11:20:30.218Z,26.10
2019-04-23T11:22:51.576Z,26.40
2019-04-23T11:25:31.640Z,26.60
2019-04-23T11:27:59.837Z,26.80
2019-04-23T11:30:31.869Z,26.80
2019-04-23T11:35:39.654Z,27.00
2019-04-23T11:40:25.253Z,27.30
2019-04-23T11:53:06.712Z,28.00
2019-04-23T11:55:44.928Z,28.10
2019-04-23T12:00:51.134Z,27.90
2019-04-23T12:03:07.418Z,28.00
2019-04-23T12:06:15.339Z,28.10
2019-04-23T12:09:00.602Z,28.20
2019-04-23T12:19:52.659Z,28.10
2019-04-23T12:29:37.477Z,28.50
2019-04-23T12:32:43.270Z,28.30
2019-04-23T12:35:01.306Z,28.10
2019-04-23T12:40:20.012Z,28.00
2019-04-23T12:45:28.911Z,27.90
2019-04-23T12:47:58.475Z,27.90
2019-04-23T12:55:21.688Z,27.80
2019-04-23T13:03:05.082Z,27.70
2019-04-23T13:05:31.256Z,27.70
2019-04-23T13:07:54.063Z,27.50
2019-04-23T13:10:30.242Z,27.40
2019-04-23T13:13:03.643Z,27.50
2019-04-23T13:20:27.951Z,27.70
2019-04-23T13:25:47.292Z,27.20
2019-04-23T13:33:31.976Z,26.70
2019-04-23T13:36:12.048Z,26.60
2019-04-23T13:38:25.083Z,26.50
2019-04-23T13:46:09.993Z,26.00
2019-04-23T13:48:24.887Z,25.90
2019-04-23T13:51:08.270Z,25.90
2019-04-23T13:53:42.717Z,25.70
2019-04-23T13:56:18.599Z,25.50
2019-04-23T14:03:41.146Z,25.20
2019-04-23T14:06:23.230Z,25.20
2019-04-23T14:13:52.986Z,25.00
2019-04-23T14:16:21.307Z,24.80
2019-04-23T14:21:18.977Z,24.60
2019-04-23T14:24:03.343Z,24.60
2019-04-23T14:26:25.996Z,24.50
2019-04-23T14:36:39.640Z,24.20
2019-04-23T14:38:54.484Z,24.30
2019-04-23T14:41:24.936Z,24.30
2019-04-23T14:44:05.682Z,24.30
2019-04-23T14:48:59.863Z,24.20
2019-04-23T14:51:32.143Z,24.10
2019-04-23T14:53:53.798Z,24.10
2019-04-23T14:56:32.448Z,24.10
2019-04-23T14:59:01.702Z,24.00
2019-04-23T15:03:55.965Z,24.00
2019-04-23T15:09:10.825Z,24.20
2019-04-23T15:16:32.917Z,24.60
2019-04-23T15:24:13.889Z,24.80
2019-04-23T15:28:56.254Z,24.80
2019-04-23T15:34:17.687Z,24.90
2019-04-23T15:39:24.547Z,24.90
2019-04-23T15:41:57.208Z,24.80
2019-04-23T15:46:56.568Z,24.70
2019-04-23T15:51:53.770Z,24.70
2019-04-23T15:54:17.857Z,24.70
2019-04-23T15:56:56.423Z,24.70
2019-04-23T15:59:29.324Z,24.70
2019-04-23T16:01:40.538Z,24.60
2019-04-23T16:03:53.786Z,24.50
2019-04-23T16:06:27.272Z,24.40
2019-04-23T16:09:33.590Z,24.20
2019-04-23T16:11:50.134Z,24.20
2019-04-23T16:14:46.106Z,24.20
2019-04-23T16:16:55.171Z,24.20
2019-04-23T16:19:42.891Z,24.10
2019-04-23T16:24:45.993Z,23.80
2019-04-23T16:27:11.064Z,23.90
2019-04-23T16:29:54.194Z,23.90
2019-04-23T16:32:20.867Z,23.90
2019-04-23T16:34:44.755Z,23.90
2019-04-23T16:39:56.003Z,23.80
2019-04-23T16:42:27.266Z,23.70
2019-04-23T16:45:12.542Z,23.70
2019-04-23T16:47:26.118Z,23.60
2019-04-23T16:52:21.358Z,23.50
2019-04-23T16:57:43.800Z,23.40
2019-04-23T17:00:15.173Z,23.30
2019-04-23T17:02:24.434Z,23.30
2019-04-23T17:05:02.890Z,23.30
2019-04-23T17:07:20.297Z,23.30
2019-04-23T17:12:28.853Z,23.20
2019-04-23T17:15:05.349Z,23.10
2019-04-23T17:17:24.739Z,23.10
2019-04-23T17:22:31.366Z,23.10
2019-04-23T17:27:39.124Z,23.00
2019-04-23T17:30:09.672Z,23.00
2019-04-23T17:32:57.223Z,22.90
2019-04-23T17:35:30.359Z,22.80
2019-04-23T17:38:10.852Z,22.80
2019-04-23T17:40:59.796Z,22.70
2019-04-23T17:43:26.458Z,22.70
2019-04-23T17:46:01.221Z,22.60
2019-04-23T17:48:28.690Z,22.60
2019-04-23T17:53:43.088Z,22.50
2019-04-23T18:06:30.200Z,22.20
2019-04-23T18:08:53.992Z,22.10
2019-04-23T18:11:29.841Z,22.00
2019-04-23T18:13:57.151Z,22.00
2019-04-23T18:16:35.550Z,21.90
2019-04-23T18:27:00.114Z,21.60
2019-04-23T18:29:51.585Z,21.50
2019-04-23T18:32:35.359Z,21.40
2019-04-23T18:35:15.582Z,21.40
2019-04-23T18:40:02.027Z,21.40
2019-04-23T18:42:41.721Z,21.30
2019-04-23T18:45:03.701Z,21.30
2019-04-23T18:47:51.912Z,21.10
2019-04-23T18:50:16.351Z,20.90
2019-04-23T18:52:58.507Z,20.70
2019-04-23T18:55:14.546Z,20.60
2019-04-23T18:57:45.754Z,20.50
2019-04-23T19:00:37.010Z,20.40
2019-04-23T19:05:43.478Z,20.20
2019-04-23T19:08:21.203Z,20.10
2019-04-23T19:10:57.805Z,19.90
2019-04-23T19:13:57.371Z,19.80
2019-04-23T19:16:15.859Z,19.60
2019-04-23T19:18:56.268Z,19.50
2019-04-23T19:21:36.307Z,19.40
2019-04-23T19:23:52.897Z,19.30
2019-04-23T19:26:49.287Z,19.20
2019-04-23T19:31:40.487Z,18.90
2019-04-23T19:36:52.582Z,18.80
2019-04-23T19:39:21.498Z,18.70
2019-04-23T19:41:57.456Z,18.60
2019-04-23T19:44:08.705Z,18.50
2019-04-23T19:51:49.422Z,18.30
2019-04-23T19:56:51.508Z,18.20
2019-04-23T19:59:13.413Z,18.10
2019-04-23T20:01:53.323Z,17.90
2019-04-23T20:04:16.112Z,17.90
2019-04-23T20:07:04.364Z,17.80
2019-04-23T20:09:37.349Z,17.70
2019-04-23T20:12:04.555Z,17.70
2019-04-23T20:14:21.231Z,17.70
2019-04-23T20:19:32.352Z,17.60
2019-04-23T20:22:00.559Z,17.50
2019-04-23T20:24:47.241Z,17.50
2019-04-23T20:26:59.802Z,17.40
2019-04-23T20:30:02.805Z,17.40
2019-04-23T20:33:02.973Z,17.30
2019-04-23T20:37:30.899Z,17.20
2019-04-23T20:39:56.829Z,17.10
2019-04-23T20:42:44.423Z,16.80
2019-04-23T20:49:48.561Z,16.60
2019-04-23T20:52:13.776Z,16.50
2019-04-23T20:55:01.928Z,16.50
2019-04-23T20:57:51.814Z,16.50
2019-04-23T21:00:27.992Z,16.50
2019-04-23T21:05:33.117Z,16.40
2019-04-23T21:08:30.883Z,16.40
2019-04-23T21:15:46.279Z,16.20
2019-04-23T21:20:40.137Z,16.10
2019-04-23T21:23:10.920Z,16.10
2019-04-23T21:25:44.632Z,16.00
2019-04-23T21:31:07.046Z,15.90
2019-04-23T21:33:46.082Z,15.90
2019-04-23T21:36:42.586Z,15.80
2019-04-23T21:39:18.413Z,15.80
2019-04-23T21:41:53.507Z,15.70
2019-04-23T21:44:13.522Z,15.60
2019-04-23T21:46:48.146Z,15.60
2019-04-23T21:51:55.790Z,15.50
2019-04-23T21:54:06.020Z,15.40
2019-04-23T21:56:47.027Z,15.30
2019-04-23T22:02:09.190Z,15.30
2019-04-23T22:04:24.737Z,15.30
2019-04-23T22:14:28.977Z,15.20
2019-04-23T22:17:13.119Z,15.10
2019-04-23T22:19:20.251Z,15.00
2019-04-23T22:22:01.166Z,15.00
2019-04-23T22:24:19.769Z,14.90
2019-04-23T22:26:53.300Z,14.90
2019-04-23T22:31:53.797Z,14.80
2019-04-23T22:39:43.901Z,14.60
2019-04-23T22:42:22.421Z,14.30
2019-04-23T22:44:51.551Z,14.10
2019-04-23T22:47:06.002Z,14.00
2019-04-23T22:50:07.532Z,13.90
2019-04-23T22:52:23.084Z,13.90
2019-04-23T22:55:03.607Z,13.90
2019-04-23T22:57:17.004Z,13.90
2019-04-23T23:00:04.402Z,13.80
2019-04-23T23:05:14.125Z,13.90
2019-04-23T23:07:51.167Z,13.90
2019-04-23T23:15:24.462Z,13.80
2019-04-23T23:17:50.904Z,13.70
2019-04-23T23:22:51.808Z,13.70
2019-04-23T23:25:24.666Z,13.40
2019-04-23T23:30:15.684Z,13.10
2019-04-23T23:32:52.389Z,13.00
2019-04-23T23:37:48.123Z,12.70
2019-04-23T23:42:54.631Z,12.80
2019-04-23T23:47:44.727Z,12.80
2019-04-23T23:50:36.576Z,12.90
2019-04-23T23:52:54.877Z,12.80
2019-04-23T23:57:50.934Z,12.80
